Frenchtown, MT (59834)

4:50 AM MDT on October 02, 2014 (GMT -0600)
Houle Creek | Change Station
CLOSE
Current Station
Personal Weather Station
Location: Frenchtown, MT
Elevation: 3678 ft
Nearby Weather Stations

Elev 3678 ft 47.06 °N, 114.29 °W | Updated 7 seconds ago

Overcast
Overcast
43.2 °F
Feels Like 43 °F
N
0.0
Wind Variable Wind from North
Gusts 0.0 mph

Today
High -- | Low -- °F
--% Chance of Precip.
Yesterday
High -- | Low -- °F
Precip. -- in
7:37 AM 7:14 PM
First Quarter, 57% visible
Pressure 30.09 in
Visibility 10.0 miles
Clouds Overcast 6500 ft
Windchill 43 °F
Dew Point 38 °F
Humidity 83%
Rainfall 0.00 in
Snow Depth 0 in , 0 in , 0 in
UV 0 out of 12
Pollen 3.90 out of 12
Air Quality Not available.
Flu Activity Not available.
METAR KMSO 020953Z AUTO 12005KT 10SM OVC065 07/03 A3009 RMK AO2 SLP190 T00720028

More Conditions Fewer Conditions

Pressure 30.09 in
Visibility 10.0 miles
Clouds Overcast 6500 ft
Windchill 43 °F
Dew Point 38 °F
Humidity 83%
Rainfall 0.00 in
Snow Depth 0 in , 0 in , 0 in
UV 0 out of 12
Pollen 3.90 out of 12
Air Quality Not available.
Flu Activity Not available.
METAR KMSO 020953Z AUTO 12005KT 10SM OVC065 07/03 A3009 RMK AO2 SLP190 T00720028

More Conditions Fewer Conditions

10-Day Weather Forecast

Almanac

Astronomy

Oct. 02, 2014 Rise Set
Actual Time 7:37 AM MDT 7:14 PM MDT
Civil Twilight 7:06 AM MDT 7:44 PM MDT
Nautical Twilight 6:31 AM MDT 8:20 PM MDT
Astronomical Twilight 5:55 AM MDT 8:55 PM MDT
Moon 3:44 PM MDT 12:37 AM MDT
Length of Visible Light 12h 37m
Length of Day
11h 37m
Tomorrow will be 3m 19s shorter.
First Quarter, 57% of the Moon is Illuminated
Today
First Quarter
Oct 8
Full
Oct 15
Last Quarter
Oct 23
New
Oct 30
First Quarter

Today's Extremes

State Highs State Lows

Community

WunderPhotos

Upload Photos

1,758,210 photos uploaded!

WunderBlogs® & News

Nearby

Snow Depth

Station Depth Elevation
Beagle Springs 0 in 8850 ft
Lemhi Ridge 0 in 8100 ft
Burnt Mountain 0 in 5880 ft
Porcupine 0 in 6500 ft
Whiskey Creek 0 in 6800 ft

Earthquake Activity

City Distance Mag. Time & Date
No recent earthquake activity has been reported nearby.
Minimum magnitude displayed is 2.5.

Coastal Water Temperatures

Place Temperature
No Stations Reporting

Nearby Weather Stations